sensor_id;sensor_type;location;lat;lon;timestamp;temperature;humidity
35395;DHT22;21500;45.308;9.488;2023-07-31T05:41:58;24.40;99.90
35395;DHT22;21500;45.308;9.488;2023-07-31T05:44:24;24.50;99.90
35395;DHT22;21500;45.308;9.488;2023-07-31T05:46:50;24.50;99.90
35395;DHT22;21500;45.308;9.488;2023-07-31T05:49:16;24.50;99.90
35395;DHT22;21500;45.308;9.488;2023-07-31T05:51:41;24.60;99.90
35395;DHT22;21500;45.308;9.488;2023-07-31T05:54:07;24.50;99.90
35395;DHT22;21500;45.308;9.488;2023-07-31T05:56:33;24.50;99.90
35395;DHT22;21500;45.308;9.488;2023-07-31T05:58:59;24.60;99.90
35395;DHT22;21500;45.308;9.488;2023-07-31T06:01:25;24.70;99.90
35395;DHT22;21500;45.308;9.488;2023-07-31T06:03:51;24.70;99.90
35395;DHT22;21500;45.308;9.488;2023-07-31T06:06:20;24.80;99.90
35395;DHT22;21500;45.308;9.488;2023-07-31T06:08:46;24.90;99.90
35395;DHT22;21500;45.308;9.488;2023-07-31T06:11:11;25.00;99.90
35395;DHT22;21500;45.308;9.488;2023-07-31T06:13:37;25.10;99.90
35395;DHT22;21500;45.308;9.488;2023-07-31T06:16:03;25.20;99.90
35395;DHT22;21500;45.308;9.488;2023-07-31T06:35:08;25.70;99.90
35395;DHT22;21500;45.308;9.488;2023-07-31T06:37:34;25.70;99.90
35395;DHT22;21500;45.308;9.488;2023-07-31T06:40:00;25.80;99.90
35395;DHT22;21500;45.308;9.488;2023-07-31T06:42:26;25.80;99.90
35395;DHT22;21500;45.308;9.488;2023-07-31T06:44:52;25.70;99.90
35395;DHT22;21500;45.308;9.488;2023-07-31T06:47:18;25.70;99.90
35395;DHT22;21500;45.308;9.488;2023-07-31T06:49:43;25.70;99.90
35395;DHT22;21500;45.308;9.488;2023-07-31T06:52:09;25.70;99.90
35395;DHT22;21500;45.308;9.488;2023-07-31T06:54:36;25.70;99.90
35395;DHT22;21500;45.308;9.488;2023-07-31T06:57:05;25.80;99.90
35395;DHT22;21500;45.308;9.488;2023-07-31T06:59:30;25.90;99.90
35395;DHT22;21500;45.308;9.488;2023-07-31T07:01:56;25.80;99.90
35395;DHT22;21500;45.308;9.488;2023-07-31T07:04:22;25.90;99.90
35395;DHT22;21500;45.308;9.488;2023-07-31T07:06:48;25.80;99.90
35395;DHT22;21500;45.308;9.488;2023-07-31T07:09:14;25.90;99.90
35395;DHT22;21500;45.308;9.488;2023-07-31T07:11:39;26.00;99.90
35395;DHT22;21500;45.308;9.488;2023-07-31T07:14:05;26.10;99.90
35395;DHT22;21500;45.308;9.488;2023-07-31T07:16:31;26.20;99.90
35395;DHT22;21500;45.308;9.488;2023-07-31T07:18:57;26.20;99.90
35395;DHT22;21500;45.308;9.488;2023-07-31T07:21:23;26.20;99.90
35395;DHT22;21500;45.308;9.488;2023-07-31T07:23:50;26.20;99.90
35395;DHT22;21500;45.308;9.488;2023-07-31T07:26:16;26.20;99.90
35395;DHT22;21500;45.308;9.488;2023-07-31T07:28:41;26.20;99.90
35395;DHT22;21500;45.308;9.488;2023-07-31T07:31:07;26.20;99.90
35395;DHT22;21500;45.308;9.488;2023-07-31T07:33:33;26.20;99.90
35395;DHT22;21500;45.308;9.488;2023-07-31T07:36:02;26.10;99.90
35395;DHT22;21500;45.308;9.488;2023-07-31T07:38:28;26.30;99.90
35395;DHT22;21500;45.308;9.488;2023-07-31T07:40:54;26.30;99.90
35395;DHT22;21500;45.308;9.488;2023-07-31T07:43:19;26.40;99.90
35395;DHT22;21500;45.308;9.488;2023-07-31T07:45:45;26.50;99.90
35395;DHT22;21500;45.308;9.488;2023-07-31T07:48:11;26.70;99.90
35395;DHT22;21500;45.308;9.488;2023-07-31T07:50:38;26.70;99.90
35395;DHT22;21500;45.308;9.488;2023-07-31T07:53:05;26.80;99.90
35395;DHT22;21500;45.308;9.488;2023-07-31T07:55:31;26.70;99.90
35395;DHT22;21500;45.308;9.488;2023-07-31T07:57:57;26.60;99.90
35395;DHT22;21500;45.308;9.488;2023-07-31T08:00:24;26.60;99.90
35395;DHT22;21500;45.308;9.488;2023-07-31T08:02:49;26.50;99.90
35395;DHT22;21500;45.308;9.488;2023-07-31T08:05:22;26.60;99.90
35395;DHT22;21500;45.308;9.488;2023-07-31T08:07:48;26.80;99.90
35395;DHT22;21500;45.308;9.488;2023-07-31T08:10:14;27.10;99.90
35395;DHT22;21500;45.308;9.488;2023-07-31T08:12:40;27.30;99.90
35395;DHT22;21500;45.308;9.488;2023-07-31T08:15:14;27.40;99.90
35395;DHT22;21500;45.308;9.488;2023-07-31T08:17:52;27.40;99.90
35395;DHT22;21500;45.308;9.488;2023-07-31T08:20:26;27.60;99.90
35395;DHT22;21500;45.308;9.488;2023-07-31T08:23:03;27.50;99.90
35395;DHT22;21500;45.308;9.488;2023-07-31T08:25:38;27.50;99.90
35395;DHT22;21500;45.308;9.488;2023-07-31T08:28:15;27.50;99.90
35395;DHT22;21500;45.308;9.488;2023-07-31T08:30:53;27.80;99.90
35395;DHT22;21500;45.308;9.488;2023-07-31T08:33:20;28.10;99.90
35395;DHT22;21500;45.308;9.488;2023-07-31T08:35:50;28.40;99.90
35395;DHT22;21500;45.308;9.488;2023-07-31T08:45:17;28.40;99.90
35395;DHT22;21500;45.308;9.488;2023-07-31T09:32:52;29.10;99.90
35395;DHT22;21500;45.308;9.488;2023-07-31T10:08:34;29.60;99.90
35395;DHT22;21500;45.308;9.488;2023-07-31T10:15:22;29.90;99.90
35395;DHT22;21500;45.308;9.488;2023-07-31T10:17:57;29.70;99.90
35395;DHT22;21500;45.308;9.488;2023-07-31T10:25:50;29.60;99.90
35395;DHT22;21500;45.308;9.488;2023-07-31T10:28:19;29.90;99.90
35395;DHT22;21500;45.308;9.488;2023-07-31T10:34:35;29.80;99.90
35395;DHT22;21500;45.308;9.488;2023-07-31T10:47:02;29.80;99.90
35395;DHT22;21500;45.308;9.488;2023-07-31T10:49:50;29.60;99.90
35395;DHT22;21500;45.308;9.488;2023-07-31T10:52:23;29.60;99.90
35395;DHT22;21500;45.308;9.488;2023-07-31T10:55:15;29.80;99.90
35395;DHT22;21500;45.308;9.488;2023-07-31T10:57:54;30.10;99.90
35395;DHT22;21500;45.308;9.488;2023-07-31T11:01:53;30.20;99.90
35395;DHT22;21500;45.308;9.488;2023-07-31T11:05:05;30.10;99.90
35395;DHT22;21500;45.308;9.488;2023-07-31T11:07:49;30.40;99.90
35395;DHT22;21500;45.308;9.488;2023-07-31T11:10:19;30.50;99.90
35395;DHT22;21500;45.308;9.488;2023-07-31T11:12:49;30.40;99.90
35395;DHT22;21500;45.308;9.488;2023-07-31T11:15:26;30.20;99.90
35395;DHT22;21500;45.308;9.488;2023-07-31T11:18:02;30.30;99.90
35395;DHT22;21500;45.308;9.488;2023-07-31T11:20:43;30.60;99.90
35395;DHT22;21500;45.308;9.488;2023-07-31T11:24:13;30.50;99.90
35395;DHT22;21500;45.308;9.488;2023-07-31T11:26:53;30.40;99.90
35395;DHT22;21500;45.308;9.488;2023-07-31T11:30:12;30.20;99.90
35395;DHT22;21500;45.308;9.488;2023-07-31T11:32:55;30.10;99.90
35395;DHT22;21500;45.308;9.488;2023-07-31T11:36:21;30.00;99.90
35395;DHT22;21500;45.308;9.488;2023-07-31T11:48:47;30.20;99.90
35395;DHT22;21500;45.308;9.488;2023-07-31T18:00:36;29.90;99.90
35395;DHT22;21500;45.308;9.488;2023-07-31T18:27:36;29.40;99.90
35395;DHT22;21500;45.308;9.488;2023-07-31T18:30:05;29.30;99.90
35395;DHT22;21500;45.308;9.488;2023-07-31T18:33:14;29.20;99.90
35395;DHT22;21500;45.308;9.488;2023-07-31T18:38:51;29.10;99.90
35395;DHT22;21500;45.308;9.488;2023-07-31T18:41:29;29.10;99.90
35395;DHT22;21500;45.308;9.488;2023-07-31T18:44:02;29.10;99.90
35395;DHT22;21500;45.308;9.488;2023-07-31T18:46:32;29.00;99.90
35395;DHT22;21500;45.308;9.488;2023-07-31T18:51:44;28.90;99.90
35395;DHT22;21500;45.308;9.488;2023-07-31T19:36:28;28.40;99.90
35395;DHT22;21500;45.308;9.488;2023-07-31T19:38:55;28.40;99.90
35395;DHT22;21500;45.308;9.488;2023-07-31T19:41:21;28.30;99.90
35395;DHT22;21500;45.308;9.488;2023-07-31T19:43:47;28.30;99.90
35395;DHT22;21500;45.308;9.488;2023-07-31T19:46:13;28.30;99.90
35395;DHT22;21500;45.308;9.488;2023-07-31T19:48:38;28.30;99.90
35395;DHT22;21500;45.308;9.488;2023-07-31T19:51:04;28.30;99.90
35395;DHT22;21500;45.308;9.488;2023-07-31T19:53:30;28.30;99.90
35395;DHT22;21500;45.308;9.488;2023-07-31T19:55:56;28.20;99.90
35395;DHT22;21500;45.308;9.488;2023-07-31T19:58:22;28.20;99.90
35395;DHT22;21500;45.308;9.488;2023-07-31T20:00:48;28.20;99.90
35395;DHT22;21500;45.308;9.488;2023-07-31T20:03:15;28.20;99.90
35395;DHT22;21500;45.308;9.488;2023-07-31T20:05:40;28.20;99.90
35395;DHT22;21500;45.308;9.488;2023-07-31T20:08:06;28.20;99.90
35395;DHT22;21500;45.308;9.488;2023-07-31T20:10:34;28.10;99.90
35395;DHT22;21500;45.308;9.488;2023-07-31T20:12:59;28.00;99.90
35395;DHT22;21500;45.308;9.488;2023-07-31T20:15:25;28.00;99.90
35395;DHT22;21500;45.308;9.488;2023-07-31T20:17:51;28.00;99.90
35395;DHT22;21500;45.308;9.488;2023-07-31T20:20:17;28.00;99.90
35395;DHT22;21500;45.308;9.488;2023-07-31T20:22:42;28.00;99.90
35395;DHT22;21500;45.308;9.488;2023-07-31T20:25:08;28.00;99.90
35395;DHT22;21500;45.308;9.488;2023-07-31T20:27:34;27.90;99.90
35395;DHT22;21500;45.308;9.488;2023-07-31T20:30:00;27.80;99.90
35395;DHT22;21500;45.308;9.488;2023-07-31T20:32:26;27.80;99.90
35395;DHT22;21500;45.308;9.488;2023-07-31T20:34:52;27.80;99.90
35395;DHT22;21500;45.308;9.488;2023-07-31T20:37:18;27.80;99.90
35395;DHT22;21500;45.308;9.488;2023-07-31T20:39:44;27.70;99.90
35395;DHT22;21500;45.308;9.488;2023-07-31T20:42:11;27.70;99.90
35395;DHT22;21500;45.308;9.488;2023-07-31T20:44:39;27.60;99.90
35395;DHT22;21500;45.308;9.488;2023-07-31T20:47:05;27.60;99.90
35395;DHT22;21500;45.308;9.488;2023-07-31T20:49:31;27.50;99.90
35395;DHT22;21500;45.308;9.488;2023-07-31T20:51:57;27.50;99.90
35395;DHT22;21500;45.308;9.488;2023-07-31T20:54:23;27.50;99.90
35395;DHT22;21500;45.308;9.488;2023-07-31T20:56:50;27.50;99.90
35395;DHT22;21500;45.308;9.488;2023-07-31T20:59:18;27.40;99.90
35395;DHT22;21500;45.308;9.488;2023-07-31T21:01:44;27.40;99.90
35395;DHT22;21500;45.308;9.488;2023-07-31T21:04:10;27.40;99.90
35395;DHT22;21500;45.308;9.488;2023-07-31T21:06:37;27.30;99.90
35395;DHT22;21500;45.308;9.488;2023-07-31T21:09:03;27.40;99.90
35395;DHT22;21500;45.308;9.488;2023-07-31T21:11:30;27.30;99.90
35395;DHT22;21500;45.308;9.488;2023-07-31T21:13:58;27.30;99.90
35395;DHT22;21500;45.308;9.488;2023-07-31T21:16:24;27.30;99.90
35395;DHT22;21500;45.308;9.488;2023-07-31T21:18:51;27.30;99.90
35395;DHT22;21500;45.308;9.488;2023-07-31T21:21:19;27.20;99.90
35395;DHT22;21500;45.308;9.488;2023-07-31T21:23:45;27.20;99.90
35395;DHT22;21500;45.308;9.488;2023-07-31T21:26:11;27.10;99.90
35395;DHT22;21500;45.308;9.488;2023-07-31T21:28:37;27.10;99.90
35395;DHT22;21500;45.308;9.488;2023-07-31T21:31:13;27.10;99.90
35395;DHT22;21500;45.308;9.488;2023-07-31T21:33:40;27.00;99.90
35395;DHT22;21500;45.308;9.488;2023-07-31T21:36:06;27.00;99.90
35395;DHT22;21500;45.308;9.488;2023-07-31T21:38:32;27.00;99.90
35395;DHT22;21500;45.308;9.488;2023-07-31T21:40:58;27.00;99.90
35395;DHT22;21500;45.308;9.488;2023-07-31T21:43:24;27.00;99.90
35395;DHT22;21500;45.308;9.488;2023-07-31T21:45:50;26.90;99.90
35395;DHT22;21500;45.308;9.488;2023-07-31T21:48:16;26.90;99.90
35395;DHT22;21500;45.308;9.488;2023-07-31T21:50:43;26.90;99.90
35395;DHT22;21500;45.308;9.488;2023-07-31T21:53:09;26.90;99.90
35395;DHT22;21500;45.308;9.488;2023-07-31T21:55:35;26.80;99.90
35395;DHT22;21500;45.308;9.488;2023-07-31T21:58:01;26.80;99.90
35395;DHT22;21500;45.308;9.488;2023-07-31T22:00:26;26.80;99.90
35395;DHT22;21500;45.308;9.488;2023-07-31T22:02:53;26.70;99.90
35395;DHT22;21500;45.308;9.488;2023-07-31T22:05:19;26.70;99.90
35395;DHT22;21500;45.308;9.488;2023-07-31T22:07:45;26.70;99.90
35395;DHT22;21500;45.308;9.488;2023-07-31T22:10:11;26.70;99.90
35395;DHT22;21500;45.308;9.488;2023-07-31T22:12:38;26.60;99.90
35395;DHT22;21500;45.308;9.488;2023-07-31T22:15:04;26.60;99.90
35395;DHT22;21500;45.308;9.488;2023-07-31T22:17:30;26.60;99.90
35395;DHT22;21500;45.308;9.488;2023-07-31T22:19:57;26.60;99.90
35395;DHT22;21500;45.308;9.488;2023-07-31T22:22:22;26.60;99.90
35395;DHT22;21500;45.308;9.488;2023-07-31T22:24:48;26.60;99.90
35395;DHT22;21500;45.308;9.488;2023-07-31T22:27:16;26.60;99.90
35395;DHT22;21500;45.308;9.488;2023-07-31T22:29:41;26.60;99.90
35395;DHT22;21500;45.308;9.488;2023-07-31T22:32:08;26.60;99.90
35395;DHT22;21500;45.308;9.488;2023-07-31T22:34:34;26.50;99.90
35395;DHT22;21500;45.308;9.488;2023-07-31T22:36:59;26.50;99.90
35395;DHT22;21500;45.308;9.488;2023-07-31T22:39:25;26.40;99.90
35395;DHT22;21500;45.308;9.488;2023-07-31T22:41:51;26.40;99.90
35395;DHT22;21500;45.308;9.488;2023-07-31T22:44:17;26.40;99.90
35395;DHT22;21500;45.308;9.488;2023-07-31T22:46:43;26.30;99.90
35395;DHT22;21500;45.308;9.488;2023-07-31T22:49:08;26.30;99.90
35395;DHT22;21500;45.308;9.488;2023-07-31T22:51:34;26.30;99.90
35395;DHT22;21500;45.308;9.488;2023-07-31T22:54:00;26.30;99.90
35395;DHT22;21500;45.308;9.488;2023-07-31T22:56:25;26.20;99.90
35395;DHT22;21500;45.308;9.488;2023-07-31T22:58:51;26.10;99.90
35395;DHT22;21500;45.308;9.488;2023-07-31T23:01:17;26.10;99.90
35395;DHT22;21500;45.308;9.488;2023-07-31T23:03:44;26.00;99.90
35395;DHT22;21500;45.308;9.488;2023-07-31T23:06:09;26.00;99.90
35395;DHT22;21500;45.308;9.488;2023-07-31T23:08:35;26.00;99.90
35395;DHT22;21500;45.308;9.488;2023-07-31T23:11:02;26.00;99.90
35395;DHT22;21500;45.308;9.488;2023-07-31T23:13:27;25.90;99.90
35395;DHT22;21500;45.308;9.488;2023-07-31T23:15:53;25.80;99.90
35395;DHT22;21500;45.308;9.488;2023-07-31T23:18:19;25.80;99.90
35395;DHT22;21500;45.308;9.488;2023-07-31T23:20:49;25.80;99.90
35395;DHT22;21500;45.308;9.488;2023-07-31T23:23:17;25.90;99.90
35395;DHT22;21500;45.308;9.488;2023-07-31T23:25:43;25.80;99.90
35395;DHT22;21500;45.308;9.488;2023-07-31T23:28:11;25.70;99.90
35395;DHT22;21500;45.308;9.488;2023-07-31T23:30:36;25.70;99.90
35395;DHT22;21500;45.308;9.488;2023-07-31T23:33:02;25.70;99.90
35395;DHT22;21500;45.308;9.488;2023-07-31T23:35:31;25.60;99.90
35395;DHT22;21500;45.308;9.488;2023-07-31T23:37:57;25.50;99.90
35395;DHT22;21500;45.308;9.488;2023-07-31T23:40:25;25.50;99.90
35395;DHT22;21500;45.308;9.488;2023-07-31T23:42:51;25.50;99.90
35395;DHT22;21500;45.308;9.488;2023-07-31T23:45:17;25.40;99.90
35395;DHT22;21500;45.308;9.488;2023-07-31T23:47:44;25.40;99.90
35395;DHT22;21500;45.308;9.488;2023-07-31T23:50:10;25.30;99.90
35395;DHT22;21500;45.308;9.488;2023-07-31T23:52:39;25.30;99.90
35395;DHT22;21500;45.308;9.488;2023-07-31T23:55:06;25.30;99.90
35395;DHT22;21500;45.308;9.488;2023-07-31T23:57:32;25.30;99.90
35395;DHT22;21500;45.308;9.488;2023-07-31T23:59:59;25.20;99.90
